Terminal Aerodrome Forecast
Issued by NWS

Home | Current Version | Previous Version | Text Only | Print | Product List | Glossary On
Versions: 1 2 3 4 5 6 7 8 9 10 11 12 13 14 15
391
FTUS45 KVEF 100242 AAB
TAFHND
TAF AMD
KHND 100242Z 1003/1024 18006KT P6SM FEW080 BKN250
     FM101400 18006KT P6SM FEW050 BKN250
     FM102100 20010KT P6SM SCT050 BKN250=

USA.gov is the U.S. government's official web portal to all federal, state and local government web resources and services.